RJCC

New Chitose Airport

Chitose / Tomakomai, Japan
TAF RJCC 212308Z 2200/2306 18004KT 9999 FEW015 BKN030 BECMG 2200/2202 33005KT BECMG 2209/2211 20005KT BECMG 2303/2306 16018KT TEMPO 2303/2306 2000 -SHSN FEW005 BKN008
Issued Valid From Valid To
Jan-21 @ 23:08 UTC
(an hour ago)
Jan-22 @ 00:00 UTC
(12 minutes ago)
Jan-23 @ 06:00 UTC
(-1 days ago)
Jan-22 @ 00:00 to Jan-23 @ 06:00
TAF RJCC 212308Z 2200/2306 18004KT 9999 FEW015 BKN030
Wind Visibility Clouds
180° at 4 knots 10,000+ meters
  • Few at 1,500' AGL
  • Broken at 3,000' AGL
Becoming Jan-22 @ 00:00 to Jan-22 @ 09:00
BECMG 2200/2202 33005KT
Wind Visibility Clouds
330° at 5 knots 10,000+ meters
  • Few at 1,500' AGL
  • Broken at 3,000' AGL
Becoming Jan-22 @ 09:00 to Jan-23 @ 03:00
BECMG 2209/2211 20005KT
Wind Visibility Clouds
200° at 5 knots 10,000+ meters
  • Few at 1,500' AGL
  • Broken at 3,000' AGL
Becoming Jan-23 @ 03:00 to Jan-23 @ 06:00
BECMG 2303/2306 16018KT
Wind Visibility Clouds
160° at 18 knots 10,000+ meters
  • Few at 1,500' AGL
  • Broken at 3,000' AGL
Temporary Jan-23 @ 03:00 to Jan-23 @ 06:00
TEMPO 2303/2306 2000 -SHSN FEW005 BKN008
Visibility Clouds Conditions
1,996 meters
  • Few at 500' AGL
  • Broken at 800' AGL
  • Light Snow
TAF RJCC 212308Z 2200/2306 18004KT 9999 FEW015 BKN030 BECMG 2200/2202 33005KT BECMG 2209/2211 20005KT BECMG 2303/2306 16018KT TEMPO 2303/2306 2000 -SHSN FEW005 BKN008
Issued Jan-21 @ 23:08 UTC
(an hour ago)
Valid From Jan-22 @ 00:00 UTC
(12 minutes ago)
Valid To Jan-23 @ 06:00 UTC
(-1 days ago)
Jan-22 @ 00:00 - Jan-23 @ 06:00
Wind Visibility
180° at 4 knots 10,000+ meters
Clouds
  • Few at 1,500' AGL
  • Broken at 3,000' AGL
Becoming Jan-22 @ 00:00 - Jan-22 @ 09:00
Wind Visibility
330° at 5 knots 10,000+ meters
Clouds
  • Few at 1,500' AGL
  • Broken at 3,000' AGL
Becoming Jan-22 @ 09:00 - Jan-23 @ 03:00
Wind Visibility
200° at 5 knots 10,000+ meters
Clouds
  • Few at 1,500' AGL
  • Broken at 3,000' AGL
Becoming Jan-23 @ 03:00 - Jan-23 @ 06:00
Wind Visibility
160° at 18 knots 10,000+ meters
Clouds
  • Few at 1,500' AGL
  • Broken at 3,000' AGL
Temporary Jan-23 @ 03:00 - Jan-23 @ 06:00
Clouds
  • Few at 500' AGL
  • Broken at 800' AGL
Conditions
  • Light Snow